createdAt,value
2022-10-09T00:01:13.955Z,102535.53
2022-10-09T00:03:45.554Z,102531.88
2022-10-09T00:06:17.891Z,102526.50
2022-10-09T00:08:44.831Z,102526.34
2022-10-09T00:11:20.305Z,102528.81
2022-10-09T00:13:47.966Z,102529.69
2022-10-09T00:16:15.875Z,102529.75
2022-10-09T00:18:43.052Z,102529.66
2022-10-09T00:21:24.185Z,102525.28
2022-10-09T00:23:55.029Z,102523.56
2022-10-09T00:26:22.355Z,102518.09
2022-10-09T00:28:49.835Z,102527.81
2022-10-09T00:31:16.906Z,102532.06
2022-10-09T00:33:44.061Z,102531.19
2022-10-09T00:36:14.313Z,102530.22
2022-10-09T00:38:44.288Z,102524.75
2022-10-09T00:41:16.018Z,102530.09
2022-10-09T00:43:54.901Z,102529.94
2022-10-09T00:46:45.642Z,102525.53
2022-10-09T00:49:26.985Z,102524.47
2022-10-09T00:51:55.113Z,102529.66
2022-10-09T00:54:26.985Z,102525.09
2022-10-09T00:56:54.474Z,102518.06
2022-10-09T00:59:21.600Z,102531.19
2022-10-09T01:01:48.058Z,102516.16
2022-10-09T01:04:14.789Z,102529.22
2022-10-09T01:06:59.452Z,102528.16
2022-10-09T01:09:50.529Z,102531.56
2022-10-09T01:12:29.194Z,102526.19
2022-10-09T01:15:17.678Z,102528.63
2022-10-09T01:17:53.802Z,102517.81
2022-10-09T01:20:31.670Z,102519.47
2022-10-09T01:23:03.540Z,102519.50
2022-10-09T01:25:52.704Z,102514.34
2022-10-09T01:28:24.005Z,102514.25
2022-10-09T01:30:50.711Z,102509.94
2022-10-09T01:33:18.208Z,102506.53
2022-10-09T01:35:45.445Z,102505.66
2022-10-09T01:38:11.912Z,102506.56
2022-10-09T01:40:39.275Z,102495.94
2022-10-09T01:43:05.825Z,102499.44
2022-10-09T01:45:45.207Z,102490.69
2022-10-09T01:48:22.331Z,102496.72
2022-10-09T01:51:01.057Z,102496.66
2022-10-09T01:53:31.445Z,102488.78
2022-10-09T01:56:14.432Z,102487.06
2022-10-09T01:58:55.695Z,102488.69
2022-10-09T02:01:29.523Z,102477.28
2022-10-09T02:03:59.705Z,102474.59
2022-10-09T02:06:28.177Z,102445.97
2022-10-09T02:08:55.191Z,102474.38
2022-10-09T02:11:26.189Z,102468.13
2022-10-09T02:13:55.257Z,102468.88
2022-10-09T02:16:37.624Z,102470.56
2022-10-09T02:19:12.869Z,102468.63
2022-10-09T02:21:54.407Z,102462.50
2022-10-09T02:24:22.908Z,102463.28
2022-10-09T02:26:50.941Z,102459.72
2022-10-09T02:29:17.616Z,102460.63
2022-10-09T02:31:44.661Z,102450.91
2022-10-09T02:34:19.538Z,102450.91
2022-10-09T02:36:46.738Z,102457.94
2022-10-09T02:39:13.157Z,102454.47
2022-10-09T02:41:41.035Z,102456.16
2022-10-09T02:44:07.823Z,102446.03
2022-10-09T02:46:34.943Z,102444.09
2022-10-09T02:49:01.487Z,102457.34
2022-10-09T02:51:27.825Z,102459.06
2022-10-09T02:53:54.561Z,102453.66
2022-10-09T02:56:22.286Z,102457.06
2022-10-09T02:58:48.798Z,102454.44
2022-10-09T03:01:15.256Z,102450.13
2022-10-09T03:03:42.024Z,102456.25
2022-10-09T03:06:21.003Z,102456.28
2022-10-09T03:08:49.394Z,102454.44
2022-10-09T03:11:17.453Z,102449.09
2022-10-09T03:13:44.894Z,102451.66
2022-10-09T03:16:14.644Z,102447.13
2022-10-09T03:18:41.610Z,102447.03
2022-10-09T03:21:09.968Z,102446.06
2022-10-09T03:23:38.074Z,102448.75
2022-10-09T03:26:08.274Z,102443.50
2022-10-09T03:28:40.276Z,102448.75
2022-10-09T03:31:07.318Z,102445.16
2022-10-09T03:33:35.435Z,102443.44
2022-10-09T03:36:04.978Z,102430.31
2022-10-09T03:38:31.428Z,102433.69
2022-10-09T03:40:59.054Z,102433.56
2022-10-09T03:43:25.761Z,102434.28
2022-10-09T03:45:52.618Z,102433.31
2022-10-09T03:48:18.990Z,102430.56
2022-10-09T03:50:45.513Z,102433.09
2022-10-09T03:53:12.945Z,102439.03
2022-10-09T03:55:40.581Z,102445.00
2022-10-09T03:58:07.384Z,102448.28
2022-10-09T04:00:35.445Z,102442.94
2022-10-09T04:03:02.122Z,102459.47
2022-10-09T04:05:37.208Z,102451.56
2022-10-09T04:08:03.550Z,102448.00
2022-10-09T04:10:29.872Z,102456.56
2022-10-09T04:12:56.381Z,102455.47
2022-10-09T04:15:25.648Z,102451.00
2022-10-09T04:17:52.088Z,102456.13
2022-10-09T04:20:20.516Z,102456.00
2022-10-09T04:22:47.310Z,102454.84
2022-10-09T04:25:17.006Z,102457.44
2022-10-09T04:27:43.314Z,102455.56
2022-10-09T04:30:10.696Z,102456.25
2022-10-09T04:32:39.763Z,102457.88
2022-10-09T04:35:06.522Z,102453.53
2022-10-09T04:37:32.900Z,102447.19
2022-10-09T04:39:59.242Z,102446.31
2022-10-09T04:42:25.552Z,102441.84
2022-10-09T04:44:51.991Z,102433.16
2022-10-09T04:47:18.353Z,102433.00
2022-10-09T04:49:44.784Z,102438.31
2022-10-09T04:52:11.115Z,102437.31
2022-10-09T04:54:37.495Z,102436.28
2022-10-09T04:57:06.787Z,102435.28
2022-10-09T04:59:33.109Z,102426.31
2022-10-09T05:01:59.477Z,102436.72
2022-10-09T05:04:26.815Z,102430.56
2022-10-09T05:06:55.940Z,102430.66
2022-10-09T05:09:22.257Z,102423.47
2022-10-09T05:11:48.595Z,102429.50
2022-10-09T05:14:15.077Z,102424.16
2022-10-09T05:17:08.386Z,102417.81
2022-10-09T05:19:27.848Z,102420.19
2022-10-09T05:21:54.910Z,102421.84
2022-10-09T05:24:21.247Z,102419.22
2022-10-09T05:26:47.630Z,102422.72
2022-10-09T05:29:13.960Z,102422.69
2022-10-09T05:31:40.518Z,102414.81
2022-10-09T05:34:06.906Z,102421.63
2022-10-09T05:36:36.014Z,102427.72
2022-10-09T05:39:02.410Z,102425.16
2022-10-09T05:41:31.209Z,102428.69
2022-10-09T05:44:01.959Z,102420.53
2022-10-09T05:46:31.445Z,102422.28
2022-10-09T05:49:03.136Z,102423.25
2022-10-09T05:51:31.709Z,102430.25
2022-10-09T05:53:58.896Z,102434.72
2022-10-09T05:56:27.639Z,102432.19
2022-10-09T05:58:59.135Z,102421.63
2022-10-09T06:01:30.283Z,102428.47
2022-10-09T06:03:58.529Z,102431.94
2022-10-09T06:06:27.596Z,102430.19
2022-10-09T06:08:54.358Z,102430.97
2022-10-09T06:11:28.492Z,102436.41
2022-10-09T06:13:56.094Z,102432.06
2022-10-09T06:16:26.517Z,102433.91
2022-10-09T06:18:54.086Z,102439.72
2022-10-09T06:21:20.958Z,102440.63
2022-10-09T06:23:51.645Z,102442.59
2022-10-09T06:26:19.043Z,102443.06
2022-10-09T06:28:46.214Z,102432.13
2022-10-09T06:31:15.759Z,102447.00
2022-10-09T06:33:44.417Z,102442.63
2022-10-09T06:36:19.212Z,102442.78
2022-10-09T06:38:53.017Z,102439.72
2022-10-09T06:41:23.110Z,102433.94
2022-10-09T06:43:51.710Z,102426.47
2022-10-09T06:46:18.886Z,102434.50
2022-10-09T06:48:45.332Z,102436.09
2022-10-09T06:51:18.031Z,102432.88
2022-10-09T06:53:49.276Z,102431.13
2022-10-09T06:56:17.750Z,102436.47
2022-10-09T06:58:44.986Z,102437.19
2022-10-09T07:01:14.551Z,102430.47
2022-10-09T07:03:42.640Z,102437.78
2022-10-09T07:06:13.373Z,102425.72
2022-10-09T07:08:42.325Z,102433.91
2022-10-09T07:11:21.379Z,102437.81
2022-10-09T07:13:50.868Z,102439.13
2022-10-09T07:16:26.556Z,102437.03
2022-10-09T07:18:54.093Z,102439.31
2022-10-09T07:21:20.983Z,102440.84
2022-10-09T07:23:47.744Z,102444.28
2022-10-09T07:26:17.134Z,102446.81
2022-10-09T07:28:44.613Z,102451.94
2022-10-09T07:31:12.169Z,102445.81
2022-10-09T07:33:39.323Z,102447.50
2022-10-09T07:36:07.048Z,102446.53
2022-10-09T07:38:33.645Z,102444.78
2022-10-09T07:41:08.261Z,102448.34
2022-10-09T07:43:36.875Z,102445.75
2022-10-09T07:46:05.082Z,102448.50
2022-10-09T07:48:33.347Z,102444.16
2022-10-09T07:51:11.325Z,102442.44
2022-10-09T07:53:38.605Z,102444.28
2022-10-09T07:56:05.777Z,102449.53
2022-10-09T07:58:35.911Z,102452.31
2022-10-09T08:01:09.871Z,102448.00
2022-10-09T08:03:38.088Z,102429.59
2022-10-09T08:06:07.589Z,102439.50
2022-10-09T08:08:34.114Z,102431.84
2022-10-09T08:11:07.739Z,102430.47
2022-10-09T08:13:34.672Z,102436.19
2022-10-09T08:16:01.496Z,102431.66
2022-10-09T08:18:28.116Z,102425.72
2022-10-09T08:21:06.754Z,102429.44
2022-10-09T08:23:35.116Z,102431.09
2022-10-09T08:26:02.277Z,102417.31
2022-10-09T08:28:30.723Z,102424.50
2022-10-09T08:30:57.189Z,102423.50
2022-10-09T08:33:24.871Z,102410.78
2022-10-09T08:35:52.997Z,102418.88
2022-10-09T08:38:46.104Z,102416.19
2022-10-09T08:41:37.838Z,102408.13
2022-10-09T08:44:23.951Z,102400.09
2022-10-09T08:46:59.230Z,102400.03
2022-10-09T08:49:31.685Z,102401.63
2022-10-09T08:52:04.812Z,102389.09
2022-10-09T08:54:36.345Z,102390.00
2022-10-09T08:57:09.746Z,102385.97
2022-10-09T08:59:36.286Z,102390.78
2022-10-09T09:05:12.317Z,102382.13
2022-10-09T09:07:47.764Z,102377.53
2022-10-09T09:10:22.707Z,102372.13
2022-10-09T09:12:57.157Z,102370.13
2022-10-09T09:15:58.458Z,102372.53
2022-10-09T09:18:54.607Z,102370.31
2022-10-09T09:21:42.911Z,102360.66
2022-10-09T09:24:17.724Z,102366.25
2022-10-09T09:26:48.849Z,102357.69
2022-10-09T09:29:21.414Z,102351.97
2022-10-09T09:31:53.560Z,102353.19
2022-10-09T09:34:28.871Z,102353.38
2022-10-09T09:36:57.938Z,102346.72
2022-10-09T09:42:17.480Z,102340.09
2022-10-09T09:44:55.156Z,102343.06
2022-10-09T09:47:41.817Z,102341.72
2022-10-09T09:50:23.365Z,102327.91
2022-10-09T09:52:56.182Z,102334.53
2022-10-09T09:55:29.544Z,102328.88
2022-10-09T09:58:05.542Z,102329.72
2022-10-09T10:00:32.871Z,102315.44
2022-10-09T10:03:04.754Z,102323.50
2022-10-09T10:05:36.768Z,102315.72
2022-10-09T10:08:23.118Z,102300.84
2022-10-09T10:10:52.110Z,102311.59
2022-10-09T10:13:22.092Z,102309.25
2022-10-09T10:15:55.096Z,102300.22
2022-10-09T10:18:24.726Z,102305.09
2022-10-09T10:20:54.743Z,102302.19
2022-10-09T10:23:41.662Z,102300.19
2022-10-09T10:26:21.033Z,102301.84
2022-10-09T10:28:53.162Z,102304.06
2022-10-09T10:31:33.734Z,102285.13
2022-10-09T10:34:04.146Z,102289.28
2022-10-09T10:36:33.024Z,102292.69
2022-10-09T10:39:12.028Z,102284.72
2022-10-09T10:41:45.424Z,102280.63
2022-10-09T10:44:25.439Z,102289.69
2022-10-09T10:47:00.986Z,102271.44
2022-10-09T10:49:32.869Z,102275.59
2022-10-09T10:52:35.170Z,102275.13
2022-10-09T10:55:10.396Z,102264.63
2022-10-09T10:58:01.346Z,102273.59
2022-10-09T11:00:29.189Z,102258.72
2022-10-09T11:02:58.522Z,102258.72
2022-10-09T11:05:34.170Z,102253.81
2022-10-09T11:08:21.256Z,102246.63
2022-10-09T11:10:58.909Z,102252.19
2022-10-09T11:13:33.359Z,102240.78
2022-10-09T11:16:09.472Z,102233.59
2022-10-09T11:18:42.067Z,102229.00
2022-10-09T11:21:17.595Z,102236.41
2022-10-09T11:23:50.582Z,102225.25
2022-10-09T11:26:34.872Z,102220.59
2022-10-09T11:29:08.486Z,102213.81
2022-10-09T11:31:42.844Z,102214.47
2022-10-09T11:34:18.008Z,102193.56
2022-10-09T11:36:45.445Z,102200.81
2022-10-09T11:39:19.124Z,102188.78
2022-10-09T11:41:48.020Z,102178.22
2022-10-09T11:44:20.168Z,102181.38
2022-10-09T11:46:50.297Z,102176.09
2022-10-09T11:49:23.485Z,102170.06
2022-10-09T11:51:49.745Z,102169.97
2022-10-09T11:54:19.893Z,102172.00
2022-10-09T11:56:58.975Z,102161.28
2022-10-09T11:59:43.588Z,102156.75
2022-10-09T12:02:24.973Z,102151.31
2022-10-09T12:04:55.581Z,102138.78
2022-10-09T12:10:20.517Z,102126.41
2022-10-09T12:12:59.675Z,102120.44
2022-10-09T12:15:47.148Z,102119.16
2022-10-09T12:18:28.350Z,102111.53
2022-10-09T12:20:57.344Z,102100.16
2022-10-09T12:23:28.712Z,102093.06
2022-10-09T12:25:56.828Z,102091.94
2022-10-09T12:28:35.656Z,102099.09
2022-10-09T12:31:05.289Z,102091.75
2022-10-09T12:33:39.327Z,102080.84
2022-10-09T12:36:13.447Z,102076.34
2022-10-09T12:38:40.718Z,102073.25
2022-10-09T12:41:19.352Z,102071.00
2022-10-09T12:43:48.096Z,102064.03
2022-10-09T12:46:14.527Z,102060.50
2022-10-09T12:48:43.489Z,102043.59
2022-10-09T12:51:35.858Z,102057.72
2022-10-09T12:54:09.007Z,102046.44
2022-10-09T12:56:38.375Z,102044.09
2022-10-09T12:59:07.039Z,102035.34
2022-10-09T13:01:34.588Z,102028.22
2022-10-09T13:04:05.654Z,102018.19
2022-10-09T13:06:38.077Z,102010.94
2022-10-09T13:09:07.827Z,102007.53
2022-10-09T13:11:41.054Z,102005.06
2022-10-09T13:14:24.420Z,102011.50
2022-10-09T13:16:50.935Z,101996.47
2022-10-09T13:19:26.638Z,101996.47
2022-10-09T13:22:19.175Z,101985.69
2022-10-09T13:24:46.384Z,101978.66
2022-10-09T13:27:14.587Z,101977.75
2022-10-09T13:29:42.904Z,101970.63
2022-10-09T13:32:12.917Z,101957.44
2022-10-09T13:34:39.538Z,101958.22
2022-10-09T13:37:06.169Z,101956.72
2022-10-09T13:39:32.507Z,101964.78
2022-10-09T13:41:59.739Z,101948.16
2022-10-09T13:44:46.022Z,101959.91
2022-10-09T13:47:12.380Z,101950.47
2022-10-09T13:49:38.801Z,101946.34
2022-10-09T13:52:05.306Z,101945.72
2022-10-09T13:54:31.957Z,101952.13
2022-10-09T13:56:58.374Z,101947.72
2022-10-09T13:59:24.909Z,101947.75
2022-10-09T14:01:52.187Z,101946.22
2022-10-09T14:04:20.277Z,101939.13
2022-10-09T14:06:46.741Z,101935.78
2022-10-09T14:09:13.120Z,101934.00
2022-10-09T14:11:39.542Z,101922.50
2022-10-09T14:14:06.378Z,101927.22
2022-10-09T14:16:32.728Z,101920.31
2022-10-09T14:19:01.350Z,101914.94
2022-10-09T14:21:28.915Z,101919.38
2022-10-09T14:24:00.443Z,101901.69
2022-10-09T14:26:28.646Z,101901.00
2022-10-09T14:28:58.166Z,101893.09
2022-10-09T14:31:24.536Z,101892.31
2022-10-09T14:33:56.170Z,101888.66
2022-10-09T14:36:22.981Z,101879.84
2022-10-09T14:38:49.513Z,101875.56
2022-10-09T14:41:20.828Z,101875.63
2022-10-09T14:43:53.035Z,101865.97
2022-10-09T14:46:19.757Z,101868.72
2022-10-09T14:48:49.779Z,101867.06
2022-10-09T14:51:19.927Z,101866.50
2022-10-09T14:53:47.656Z,101854.16
2022-10-09T14:56:17.251Z,101855.94
2022-10-09T14:58:44.415Z,101856.66
2022-10-09T15:01:16.152Z,101849.59
2022-10-09T15:03:42.917Z,101848.88
2022-10-09T15:06:11.806Z,101841.84
2022-10-09T15:08:42.462Z,101839.16
2022-10-09T15:11:10.563Z,101834.75
2022-10-09T15:13:38.095Z,101836.56
2022-10-09T15:16:09.323Z,101827.78
2022-10-09T15:18:36.166Z,101829.72
2022-10-09T15:21:03.370Z,101828.84
2022-10-09T15:23:30.591Z,101819.03
2022-10-09T15:25:59.422Z,101817.22
2022-10-09T15:28:26.122Z,101817.25
2022-10-09T15:30:55.973Z,101815.63
2022-10-09T15:33:22.388Z,101814.78
2022-10-09T15:35:51.619Z,101810.28
2022-10-09T15:38:21.625Z,101803.13
2022-10-09T15:40:56.563Z,101790.69
2022-10-09T15:43:25.885Z,101797.75
2022-10-09T15:45:56.012Z,101792.44
2022-10-09T15:48:24.799Z,101787.97
2022-10-09T15:50:53.630Z,101783.47
2022-10-09T15:53:23.525Z,101772.97
2022-10-09T15:55:53.954Z,101777.50
2022-10-09T15:58:31.467Z,101773.16
2022-10-09T16:01:03.847Z,101777.63
2022-10-09T16:03:33.326Z,101767.06
2022-10-09T16:06:04.404Z,101759.97
2022-10-09T16:08:31.651Z,101756.50
2022-10-09T16:10:58.672Z,101756.56
2022-10-09T16:13:26.788Z,101757.50
2022-10-09T16:15:53.968Z,101757.56
2022-10-09T16:18:22.821Z,101749.59
2022-10-09T16:20:50.729Z,101754.06
2022-10-09T16:23:18.590Z,101750.53
2022-10-09T16:25:56.036Z,101748.78
2022-10-09T16:28:22.532Z,101749.69
2022-10-09T16:30:49.030Z,101740.84
2022-10-09T16:33:18.647Z,101742.69
2022-10-09T16:35:46.342Z,101737.38
2022-10-09T16:38:13.776Z,101737.41
2022-10-09T16:41:02.965Z,101739.25
2022-10-09T16:43:33.440Z,101742.00
2022-10-09T16:46:19.032Z,101737.59
2022-10-09T16:48:50.369Z,101735.91
2022-10-09T16:51:36.062Z,101741.25
2022-10-09T16:54:05.215Z,101738.66
2022-10-09T16:56:34.872Z,101741.34
2022-10-09T16:59:04.589Z,101739.63
2022-10-09T17:01:32.166Z,101736.16
2022-10-09T17:03:59.970Z,101736.19
2022-10-09T17:06:35.592Z,101730.06
2022-10-09T17:09:02.934Z,101727.47
2022-10-09T17:11:30.671Z,101726.59
2022-10-09T17:13:57.673Z,101731.06
2022-10-09T17:16:28.297Z,101728.47
2022-10-09T17:18:55.555Z,101724.94
2022-10-09T17:21:21.995Z,101732.94
2022-10-09T17:23:52.385Z,101732.13
2022-10-09T17:26:20.443Z,101722.38
2022-10-09T17:28:49.945Z,101725.06
2022-10-09T17:31:19.561Z,101720.69
2022-10-09T17:33:48.316Z,101729.56
2022-10-09T17:36:18.042Z,101724.25
2022-10-09T17:38:45.206Z,101716.34
2022-10-09T17:41:13.187Z,101715.47
2022-10-09T17:43:39.769Z,101713.75
2022-10-09T17:46:06.628Z,101720.81
2022-10-09T17:48:34.518Z,101712.88
2022-10-09T17:51:02.138Z,101717.28
2022-10-09T17:53:28.518Z,101719.06
2022-10-09T17:55:56.276Z,101712.94
2022-10-09T17:58:24.345Z,101707.63
2022-10-09T18:00:51.749Z,101712.94
2022-10-09T18:03:19.057Z,101709.41
2022-10-09T18:05:48.087Z,101705.88
2022-10-09T18:08:17.235Z,101708.53
2022-10-09T18:10:44.669Z,101706.75
2022-10-09T18:13:11.484Z,101697.06
2022-10-09T18:15:43.645Z,101695.28
2022-10-09T18:18:11.274Z,101697.97
2022-10-09T18:20:38.863Z,101683.81
2022-10-09T18:23:06.227Z,101695.28
2022-10-09T18:25:32.935Z,101699.72
2022-10-09T18:27:59.741Z,101692.66
2022-10-09T18:30:27.511Z,101696.16
2022-10-09T18:32:53.901Z,101690.00
2022-10-09T18:35:20.211Z,101692.59
2022-10-09T18:37:46.594Z,101691.69
2022-10-09T18:40:13.973Z,101687.25
2022-10-09T18:42:40.436Z,101686.34
2022-10-09T18:45:08.112Z,101688.97
2022-10-09T18:47:35.949Z,101683.66
2022-10-09T18:50:06.939Z,101684.50
2022-10-09T18:52:35.245Z,101689.78
2022-10-09T18:55:02.739Z,101675.66
2022-10-09T18:57:29.627Z,101680.06
2022-10-09T18:59:58.411Z,101691.50
2022-10-09T19:02:27.230Z,101684.41
2022-10-09T19:04:56.774Z,101678.19
2022-10-09T19:07:29.539Z,101679.03
2022-10-09T19:09:57.533Z,101673.72
2022-10-09T19:12:24.883Z,101675.47
2022-10-09T19:14:51.776Z,101668.34
2022-10-09T19:17:18.501Z,101660.38
2022-10-09T19:19:45.374Z,101665.63
2022-10-09T19:22:16.563Z,101669.13
2022-10-09T19:24:44.193Z,101668.19
2022-10-09T19:27:14.155Z,101661.13
2022-10-09T19:29:40.921Z,101656.66
2022-10-09T19:32:07.343Z,101653.13
2022-10-09T19:34:33.923Z,101657.56
2022-10-09T19:37:00.502Z,101658.34
2022-10-09T19:39:28.024Z,101649.56
2022-10-09T19:41:54.723Z,101646.00
2022-10-09T19:44:21.539Z,101633.66
2022-10-09T19:46:48.489Z,101635.34
2022-10-09T19:49:15.225Z,101633.59
2022-10-09T19:51:41.553Z,101631.78
2022-10-09T19:54:09.480Z,101633.53
2022-10-09T19:56:37.370Z,101626.44
2022-10-09T19:59:07.254Z,101614.09
2022-10-09T20:01:35.970Z,101614.03
2022-10-09T20:04:07.563Z,101610.47
2022-10-09T20:06:36.772Z,101610.44
2022-10-09T20:09:05.072Z,101611.31
2022-10-09T20:11:31.730Z,101610.41
2022-10-09T20:13:58.729Z,101602.44
2022-10-09T20:16:25.861Z,101605.94
2022-10-09T20:18:58.021Z,101607.63
2022-10-09T20:21:25.678Z,101598.78
2022-10-09T20:23:53.055Z,101594.38
2022-10-09T20:26:32.367Z,101575.78
2022-10-09T20:29:00.287Z,101597.03
2022-10-09T20:31:27.279Z,101597.88
2022-10-09T20:33:54.981Z,101589.94
2022-10-09T20:36:23.947Z,101592.59
2022-10-09T20:38:51.926Z,101589.09
2022-10-09T20:41:18.653Z,101587.28
2022-10-09T20:43:49.165Z,101583.69
2022-10-09T20:46:15.908Z,101584.59
2022-10-09T20:48:43.205Z,101581.03
2022-10-09T20:51:09.939Z,101575.72
2022-10-09T20:53:37.000Z,101573.91
2022-10-09T20:56:06.778Z,101568.59
2022-10-09T20:58:35.137Z,101574.72
2022-10-09T21:01:06.279Z,101567.66
2022-10-09T21:03:33.419Z,101575.56
2022-10-09T21:06:03.815Z,101564.06
2022-10-09T21:08:31.968Z,101565.78
2022-10-09T21:11:04.248Z,101556.97
2022-10-09T21:13:30.895Z,101552.53
2022-10-09T21:15:57.522Z,101543.72
2022-10-09T21:18:23.975Z,101545.53
2022-10-09T21:20:54.727Z,101548.19
2022-10-09T21:23:21.239Z,101549.94
2022-10-09T21:25:50.012Z,101550.88
2022-10-09T21:28:18.079Z,101545.56
2022-10-09T21:30:44.759Z,101541.16
2022-10-09T21:33:11.608Z,101546.44
2022-10-09T21:35:40.445Z,101539.41
2022-10-09T21:38:07.549Z,101542.91
2022-10-09T21:40:33.912Z,101534.97
2022-10-09T21:43:00.431Z,101530.53
2022-10-09T21:45:26.865Z,101529.69
2022-10-09T21:47:53.657Z,101532.34
2022-10-09T21:50:20.004Z,101529.72
2022-10-09T21:52:53.738Z,101522.66
2022-10-09T21:55:20.246Z,101518.28
2022-10-09T21:57:46.887Z,101521.81
2022-10-09T22:00:13.465Z,101524.44
2022-10-09T22:02:41.418Z,101520.88
2022-10-09T22:05:08.291Z,101523.53
2022-10-09T22:07:35.758Z,101513.91
2022-10-09T22:10:03.875Z,101514.75
2022-10-09T22:12:34.892Z,101513.91
2022-10-09T22:15:01.992Z,101512.97
2022-10-09T22:17:28.821Z,101515.59
2022-10-09T22:19:56.239Z,101519.06
2022-10-09T22:22:24.037Z,101512.00
2022-10-09T22:24:51.929Z,101520.81
2022-10-09T22:27:21.502Z,101514.63
2022-10-09T22:29:47.900Z,101510.28
2022-10-09T22:32:14.500Z,101505.84
2022-10-09T22:34:40.837Z,101501.41
2022-10-09T22:37:07.396Z,101498.69
2022-10-09T22:39:34.200Z,101496.00
2022-10-09T22:42:00.515Z,101496.91
2022-10-09T22:44:26.953Z,101492.50
2022-10-09T22:46:53.811Z,101495.16
2022-10-09T22:49:21.655Z,101484.59
2022-10-09T22:51:48.051Z,101482.72
2022-10-09T22:54:14.878Z,101487.16
2022-10-09T22:56:44.031Z,101482.72
2022-10-09T22:59:12.042Z,101474.81
2022-10-09T23:01:49.403Z,101475.66
2022-10-09T23:04:18.027Z,101475.63
2022-10-09T23:06:46.291Z,101473.03
2022-10-09T23:09:15.724Z,101470.41
2022-10-09T23:11:42.721Z,101463.28
2022-10-09T23:14:11.130Z,101464.22
2022-10-09T23:16:38.163Z,101460.69
2022-10-09T23:19:07.220Z,101448.38
2022-10-09T23:21:39.579Z,101450.94
2022-10-09T23:24:08.007Z,101452.66
2022-10-09T23:26:36.128Z,101451.72
2022-10-09T23:29:05.767Z,101456.03
2022-10-09T23:31:33.433Z,101437.50
2022-10-09T23:34:00.374Z,101445.41
2022-10-09T23:36:29.371Z,101431.38
2022-10-09T23:39:04.246Z,101446.31
2022-10-09T23:41:30.900Z,101439.25
2022-10-09T23:44:03.657Z,101438.31
2022-10-09T23:46:35.942Z,101432.13
2022-10-09T23:49:02.489Z,101432.09
2022-10-09T23:51:30.699Z,101442.56
2022-10-09T23:53:58.268Z,101436.50
2022-10-09T23:56:36.067Z,101437.38
2022-10-09T23:59:05.983Z,101430.28
